Airfield :







YOU CAN JOIN US ON...

 
LOGIN :

Register | Disclaimer

   EN    FR    IT 

 









Legend :    VFR   Marginal VFR   IFR   Intensive IFR   Very Intensive IFR
Visi :
Ceiling :
>= 8 km
>= 3000ft
5 to 8 km
1000 to 3000 ft
1500m to 5 km
500 to 1000 ft
800 to 1500m
200 to 500 ft
< 800m
< 200 ft
Symbols :   Thunderstorms  Fog  Heavy snow  Heavy precipitations  Wind > 20 kt







- Airport Elevation : 335 ft
- IATA code : BTV


KBTV - Burlington International

CURRENT METAR :
  • 181754Z 19029G39KT 10SM SCT070 BKN250 15/M02 A2990 RMK AO2 PK WND 20041/1741 SLP126 ACSL ALQDS 60000 T01501022 10150 20072 58026

EXPIRED METARs :
  • 181654Z 18022G35KT 10SM BKN045 BKN110 13/M03 A2993 RMK AO2 PK WND 19038/1616 PRESFR SLP135 T01331028
  • 181554Z 18026G37KT 10SM BKN047 OVC110 12/M02 A2998 RMK AO2 PK WND 19037/1554 SLP153 T01221022

TAF KBTV
Valid from the 18 at 18:00 until the 19 at 18:00 UTC


181721Z 1818/1918 17020G34KT P6SM SCT050
FM182300 17015G26KT P6SM VCSH BKN035
FM190600 18014G22KT P6SM BKN045
FM191200 19013G21KT P6SM VCSH BKN035
KZBW FIR / North America



MET'MAP, your aeronautical weather chart ! - Copyright ORBIFLY December 2007 - Disclaimer

ORBIFLY MET'MAP TEAM :

Programming & Development : Alexandra Zaïnal
Concept & Development : Baudouin d'Aumeries
Co-Development & Prog : Marc-Olivier Méhu
Technical & hardware support : Manuel Goepfert

Contact : metmap@orbifly.com




SOURCES & CREDITS :

   NOAA